sensor_id;sensor_type;location;lat;lon;timestamp;temperature;humidity
61000;SHT31;46879;45.658;11.814;2023-04-30T00:00:42;19.84;66.09
61000;SHT31;46879;45.658;11.814;2023-04-30T00:05:42;19.82;66.09
61000;SHT31;46879;45.658;11.814;2023-04-30T00:10:43;19.82;66.20
61000;SHT31;46879;45.658;11.814;2023-04-30T00:15:44;19.82;66.23
61000;SHT31;46879;45.658;11.814;2023-04-30T00:20:44;19.82;66.21
61000;SHT31;46879;45.658;11.814;2023-04-30T00:25:45;19.84;66.30
61000;SHT31;46879;45.658;11.814;2023-04-30T00:30:46;19.82;66.33
61000;SHT31;46879;45.658;11.814;2023-04-30T00:35:46;19.82;66.39
61000;SHT31;46879;45.658;11.814;2023-04-30T00:40:48;19.84;66.38
61000;SHT31;46879;45.658;11.814;2023-04-30T00:45:48;19.81;66.52
61000;SHT31;46879;45.658;11.814;2023-04-30T00:50:49;19.82;66.50
61000;SHT31;46879;45.658;11.814;2023-04-30T00:55:50;19.82;66.54
61000;SHT31;46879;45.658;11.814;2023-04-30T01:00:51;19.81;66.54
61000;SHT31;46879;45.658;11.814;2023-04-30T01:05:52;19.82;66.49
61000;SHT31;46879;45.658;11.814;2023-04-30T01:16:47;19.85;66.64
61000;SHT31;46879;45.658;11.814;2023-04-30T01:21:51;19.82;66.94
61000;SHT31;46879;45.658;11.814;2023-04-30T01:32:26;19.84;67.12
61000;SHT31;46879;45.658;11.814;2023-04-30T01:53:41;19.87;67.04
61000;SHT31;46879;45.658;11.814;2023-04-30T01:58:42;19.85;67.16
61000;SHT31;46879;45.658;11.814;2023-04-30T02:03:44;19.84;67.09
61000;SHT31;46879;45.658;11.814;2023-04-30T02:08:44;19.85;67.23
61000;SHT31;46879;45.658;11.814;2023-04-30T02:13:45;19.84;67.27
61000;SHT31;46879;45.658;11.814;2023-04-30T02:18:46;19.85;67.37
61000;SHT31;46879;45.658;11.814;2023-04-30T02:23:47;19.84;67.35
61000;SHT31;46879;45.658;11.814;2023-04-30T02:28:48;19.85;67.40
61000;SHT31;46879;45.658;11.814;2023-04-30T02:33:48;19.85;67.52
61000;SHT31;46879;45.658;11.814;2023-04-30T02:38:49;19.85;67.54
61000;SHT31;46879;45.658;11.814;2023-04-30T02:43:49;19.85;67.63
61000;SHT31;46879;45.658;11.814;2023-04-30T02:48:51;19.84;67.71
61000;SHT31;46879;45.658;11.814;2023-04-30T02:53:51;19.85;67.70
61000;SHT31;46879;45.658;11.814;2023-04-30T02:58:52;19.85;67.76
61000;SHT31;46879;45.658;11.814;2023-04-30T03:03:53;19.87;67.68
61000;SHT31;46879;45.658;11.814;2023-04-30T03:08:53;19.88;67.82
61000;SHT31;46879;45.658;11.814;2023-04-30T03:13:54;19.87;67.89
61000;SHT31;46879;45.658;11.814;2023-04-30T03:18:54;19.87;67.97
61000;SHT31;46879;45.658;11.814;2023-04-30T03:23:55;19.88;67.89
61000;SHT31;46879;45.658;11.814;2023-04-30T03:28:56;19.87;67.87
61000;SHT31;46879;45.658;11.814;2023-04-30T03:33:56;19.88;67.97
61000;SHT31;46879;45.658;11.814;2023-04-30T03:38:57;19.88;68.04
61000;SHT31;46879;45.658;11.814;2023-04-30T03:43:58;19.88;68.00
61000;SHT31;46879;45.658;11.814;2023-04-30T03:48:58;19.88;68.03
61000;SHT31;46879;45.658;11.814;2023-04-30T03:53:59;19.89;68.04
61000;SHT31;46879;45.658;11.814;2023-04-30T03:59:00;19.87;68.03
61000;SHT31;46879;45.658;11.814;2023-04-30T04:04:00;19.88;68.07
61000;SHT31;46879;45.658;11.814;2023-04-30T04:09:01;19.88;68.19
61000;SHT31;46879;45.658;11.814;2023-04-30T04:14:03;19.89;68.19
61000;SHT31;46879;45.658;11.814;2023-04-30T04:19:04;19.88;68.15
61000;SHT31;46879;45.658;11.814;2023-04-30T04:24:06;19.88;68.11
61000;SHT31;46879;45.658;11.814;2023-04-30T04:29:08;19.89;68.23
61000;SHT31;46879;45.658;11.814;2023-04-30T04:34:09;19.89;68.26
61000;SHT31;46879;45.658;11.814;2023-04-30T04:39:10;19.88;68.18
61000;SHT31;46879;45.658;11.814;2023-04-30T04:44:12;19.89;68.21
61000;SHT31;46879;45.658;11.814;2023-04-30T04:49:12;19.85;68.21
61000;SHT31;46879;45.658;11.814;2023-04-30T04:54:13;19.87;68.33
61000;SHT31;46879;45.658;11.814;2023-04-30T04:59:15;19.89;68.28
61000;SHT31;46879;45.658;11.814;2023-04-30T05:04:16;19.89;68.50
61000;SHT31;46879;45.658;11.814;2023-04-30T05:09:17;19.91;68.52
61000;SHT31;46879;45.658;11.814;2023-04-30T05:14:17;19.89;68.37
61000;SHT31;46879;45.658;11.814;2023-04-30T05:19:18;19.89;68.51
61000;SHT31;46879;45.658;11.814;2023-04-30T05:24:19;19.91;68.54
61000;SHT31;46879;45.658;11.814;2023-04-30T05:29:19;19.91;68.64
61000;SHT31;46879;45.658;11.814;2023-04-30T05:34:20;19.89;68.54
61000;SHT31;46879;45.658;11.814;2023-04-30T05:39:20;19.95;68.73
61000;SHT31;46879;45.658;11.814;2023-04-30T05:44:21;19.98;68.25
61000;SHT31;46879;45.658;11.814;2023-04-30T05:49:22;19.98;67.76
61000;SHT31;46879;45.658;11.814;2023-04-30T05:54:22;19.95;67.73
61000;SHT31;46879;45.658;11.814;2023-04-30T05:59:23;19.95;67.89
61000;SHT31;46879;45.658;11.814;2023-04-30T06:04:25;19.94;67.52
61000;SHT31;46879;45.658;11.814;2023-04-30T06:09:25;19.92;67.78
61000;SHT31;46879;45.658;11.814;2023-04-30T06:14:26;19.95;68.09
61000;SHT31;46879;45.658;11.814;2023-04-30T06:19:26;19.92;68.43
61000;SHT31;46879;45.658;11.814;2023-04-30T06:24:27;19.92;68.24
61000;SHT31;46879;45.658;11.814;2023-04-30T06:29:29;19.91;68.22
61000;SHT31;46879;45.658;11.814;2023-04-30T06:34:30;19.92;68.24
61000;SHT31;46879;45.658;11.814;2023-04-30T06:39:30;19.92;67.98
61000;SHT31;46879;45.658;11.814;2023-04-30T06:44:31;19.91;67.64
61000;SHT31;46879;45.658;11.814;2023-04-30T06:49:32;19.92;67.39
61000;SHT31;46879;45.658;11.814;2023-04-30T06:54:32;19.91;67.55
61000;SHT31;46879;45.658;11.814;2023-04-30T06:59:33;19.92;67.48
61000;SHT31;46879;45.658;11.814;2023-04-30T07:04:34;19.92;67.58
61000;SHT31;46879;45.658;11.814;2023-04-30T07:09:34;19.91;67.58
61000;SHT31;46879;45.658;11.814;2023-04-30T07:14:35;19.91;67.62
61000;SHT31;46879;45.658;11.814;2023-04-30T07:19:36;19.92;67.59
61000;SHT31;46879;45.658;11.814;2023-04-30T07:24:36;19.91;67.73
61000;SHT31;46879;45.658;11.814;2023-04-30T07:29:37;19.92;67.73
61000;SHT31;46879;45.658;11.814;2023-04-30T07:34:38;19.91;67.70
61000;SHT31;46879;45.658;11.814;2023-04-30T07:39:39;19.92;67.73
61000;SHT31;46879;45.658;11.814;2023-04-30T07:44:39;19.88;67.62
61000;SHT31;46879;45.658;11.814;2023-04-30T07:49:40;19.89;67.63
61000;SHT31;46879;45.658;11.814;2023-04-30T07:54:41;19.89;67.54
61000;SHT31;46879;45.658;11.814;2023-04-30T07:59:42;19.89;67.48
61000;SHT31;46879;45.658;11.814;2023-04-30T08:04:42;19.88;67.50
61000;SHT31;46879;45.658;11.814;2023-04-30T08:09:43;19.88;67.40
61000;SHT31;46879;45.658;11.814;2023-04-30T08:14:43;19.88;67.42
61000;SHT31;46879;45.658;11.814;2023-04-30T08:19:44;19.89;67.40
61000;SHT31;46879;45.658;11.814;2023-04-30T08:24:45;19.91;67.45
61000;SHT31;46879;45.658;11.814;2023-04-30T08:29:46;19.88;67.36
61000;SHT31;46879;45.658;11.814;2023-04-30T08:34:46;19.89;67.27
61000;SHT31;46879;45.658;11.814;2023-04-30T08:39:47;19.88;67.39
61000;SHT31;46879;45.658;11.814;2023-04-30T08:44:47;19.89;67.31
61000;SHT31;46879;45.658;11.814;2023-04-30T08:49:48;19.88;67.27
61000;SHT31;46879;45.658;11.814;2023-04-30T08:54:49;19.89;67.21
61000;SHT31;46879;45.658;11.814;2023-04-30T08:59:52;19.87;67.21
61000;SHT31;46879;45.658;11.814;2023-04-30T09:04:53;19.88;67.26
61000;SHT31;46879;45.658;11.814;2023-04-30T09:09:54;19.88;67.18
61000;SHT31;46879;45.658;11.814;2023-04-30T09:15:02;19.87;67.17
61000;SHT31;46879;45.658;11.814;2023-04-30T09:20:12;19.88;67.12
61000;SHT31;46879;45.658;11.814;2023-04-30T09:25:13;19.89;67.10
61000;SHT31;46879;45.658;11.814;2023-04-30T09:30:30;19.87;67.05
61000;SHT31;46879;45.658;11.814;2023-04-30T09:35:33;19.87;67.06
61000;SHT31;46879;45.658;11.814;2023-04-30T09:40:39;19.87;67.03
61000;SHT31;46879;45.658;11.814;2023-04-30T09:45:48;19.89;67.05
61000;SHT31;46879;45.658;11.814;2023-04-30T09:50:51;19.88;67.06
61000;SHT31;46879;45.658;11.814;2023-04-30T09:55:52;19.87;67.10
61000;SHT31;46879;45.658;11.814;2023-04-30T10:00:56;19.88;67.06
61000;SHT31;46879;45.658;11.814;2023-04-30T10:05:58;19.87;67.00
61000;SHT31;46879;45.658;11.814;2023-04-30T10:11:04;19.87;66.97
61000;SHT31;46879;45.658;11.814;2023-04-30T10:21:29;19.87;66.86
61000;SHT31;46879;45.658;11.814;2023-04-30T10:26:31;19.89;66.85
61000;SHT31;46879;45.658;11.814;2023-04-30T10:31:33;19.88;66.87
61000;SHT31;46879;45.658;11.814;2023-04-30T10:36:46;19.89;66.85
61000;SHT31;46879;45.658;11.814;2023-04-30T10:41:50;19.89;66.85
61000;SHT31;46879;45.658;11.814;2023-04-30T10:46:58;19.89;66.79
61000;SHT31;46879;45.658;11.814;2023-04-30T10:52:02;19.91;66.81
61000;SHT31;46879;45.658;11.814;2023-04-30T11:02:17;19.89;66.77
61000;SHT31;46879;45.658;11.814;2023-04-30T11:07:18;19.88;66.73
61000;SHT31;46879;45.658;11.814;2023-04-30T11:12:20;19.89;66.66
61000;SHT31;46879;45.658;11.814;2023-04-30T11:17:27;19.88;66.61
61000;SHT31;46879;45.658;11.814;2023-04-30T11:22:29;19.88;66.51
61000;SHT31;46879;45.658;11.814;2023-04-30T11:27:37;19.89;66.48
61000;SHT31;46879;45.658;11.814;2023-04-30T11:32:38;19.91;66.43
61000;SHT31;46879;45.658;11.814;2023-04-30T11:37:43;19.89;66.42
61000;SHT31;46879;45.658;11.814;2023-04-30T11:42:43;19.91;66.46
61000;SHT31;46879;45.658;11.814;2023-04-30T11:47:53;19.89;66.45
61000;SHT31;46879;45.658;11.814;2023-04-30T11:52:58;19.91;66.49
61000;SHT31;46879;45.658;11.814;2023-04-30T11:58:01;19.89;66.50
61000;SHT31;46879;45.658;11.814;2023-04-30T12:03:03;19.89;66.50
61000;SHT31;46879;45.658;11.814;2023-04-30T12:08:05;19.91;66.55
61000;SHT31;46879;45.658;11.814;2023-04-30T12:13:06;19.89;66.53
61000;SHT31;46879;45.658;11.814;2023-04-30T12:18:12;19.89;66.58
61000;SHT31;46879;45.658;11.814;2023-04-30T12:23:14;19.89;66.63
61000;SHT31;46879;45.658;11.814;2023-04-30T12:28:15;19.89;66.66
61000;SHT31;46879;45.658;11.814;2023-04-30T12:33:17;19.89;66.68
61000;SHT31;46879;45.658;11.814;2023-04-30T12:38:18;19.91;66.76
61000;SHT31;46879;45.658;11.814;2023-04-30T12:43:20;19.91;66.83
61000;SHT31;46879;45.658;11.814;2023-04-30T12:48:23;19.92;66.89
61000;SHT31;46879;45.658;11.814;2023-04-30T12:53:24;19.91;66.96
61000;SHT31;46879;45.658;11.814;2023-04-30T12:58:29;19.92;66.95
61000;SHT31;46879;45.658;11.814;2023-04-30T13:03:30;19.94;67.07
61000;SHT31;46879;45.658;11.814;2023-04-30T13:08:31;19.92;67.10
61000;SHT31;46879;45.658;11.814;2023-04-30T13:13:32;19.92;67.11
61000;SHT31;46879;45.658;11.814;2023-04-30T13:18:32;19.94;67.04
61000;SHT31;46879;45.658;11.814;2023-04-30T13:23:33;19.94;67.06
61000;SHT31;46879;45.658;11.814;2023-04-30T13:28:34;19.95;67.01
61000;SHT31;46879;45.658;11.814;2023-04-30T13:33:34;19.91;67.00
61000;SHT31;46879;45.658;11.814;2023-04-30T13:38:35;19.95;66.95
61000;SHT31;46879;45.658;11.814;2023-04-30T13:43:35;19.92;66.94
61000;SHT31;46879;45.658;11.814;2023-04-30T13:48:37;19.92;66.99
61000;SHT31;46879;45.658;11.814;2023-04-30T13:53:38;19.94;66.97
61000;SHT31;46879;45.658;11.814;2023-04-30T13:58:39;19.95;66.94
61000;SHT31;46879;45.658;11.814;2023-04-30T14:03:40;19.94;66.98
61000;SHT31;46879;45.658;11.814;2023-04-30T14:08:40;19.92;67.02
61000;SHT31;46879;45.658;11.814;2023-04-30T14:13:41;19.92;66.94
61000;SHT31;46879;45.658;11.814;2023-04-30T14:18:42;19.92;66.96
61000;SHT31;46879;45.658;11.814;2023-04-30T14:23:43;19.92;66.96
61000;SHT31;46879;45.658;11.814;2023-04-30T14:28:46;19.94;66.90
61000;SHT31;46879;45.658;11.814;2023-04-30T14:33:47;19.92;66.90
61000;SHT31;46879;45.658;11.814;2023-04-30T14:38:47;19.92;66.90
61000;SHT31;46879;45.658;11.814;2023-04-30T14:43:48;19.92;66.88
61000;SHT31;46879;45.658;11.814;2023-04-30T14:48:49;19.91;66.88
61000;SHT31;46879;45.658;11.814;2023-04-30T14:53:49;19.92;66.88
61000;SHT31;46879;45.658;11.814;2023-04-30T14:58:50;19.92;66.85
61000;SHT31;46879;45.658;11.814;2023-04-30T15:03:51;19.91;66.89
61000;SHT31;46879;45.658;11.814;2023-04-30T15:08:52;19.91;66.84
61000;SHT31;46879;45.658;11.814;2023-04-30T15:13:53;19.91;66.83
61000;SHT31;46879;45.658;11.814;2023-04-30T15:18:54;19.92;66.80
61000;SHT31;46879;45.658;11.814;2023-04-30T15:23:55;19.89;66.81
61000;SHT31;46879;45.658;11.814;2023-04-30T15:28:55;19.92;66.76
61000;SHT31;46879;45.658;11.814;2023-04-30T15:33:56;19.91;66.76
61000;SHT31;46879;45.658;11.814;2023-04-30T15:38:56;19.91;66.77
61000;SHT31;46879;45.658;11.814;2023-04-30T15:43:57;19.92;66.71
61000;SHT31;46879;45.658;11.814;2023-04-30T15:48:58;19.91;66.72
61000;SHT31;46879;45.658;11.814;2023-04-30T15:53:59;19.89;66.71
61000;SHT31;46879;45.658;11.814;2023-04-30T15:58:59;19.89;66.69
61000;SHT31;46879;45.658;11.814;2023-04-30T16:04:00;19.89;66.69
61000;SHT31;46879;45.658;11.814;2023-04-30T16:09:01;19.88;66.75
61000;SHT31;46879;45.658;11.814;2023-04-30T16:14:06;19.91;66.68
61000;SHT31;46879;45.658;11.814;2023-04-30T16:19:06;19.89;66.65
61000;SHT31;46879;45.658;11.814;2023-04-30T16:24:07;19.88;66.67
61000;SHT31;46879;45.658;11.814;2023-04-30T16:29:09;19.88;66.65
61000;SHT31;46879;45.658;11.814;2023-04-30T16:34:10;19.89;66.68
61000;SHT31;46879;45.658;11.814;2023-04-30T16:39:13;19.91;66.63
61000;SHT31;46879;45.658;11.814;2023-04-30T16:44:14;19.89;66.61
61000;SHT31;46879;45.658;11.814;2023-04-30T16:49:15;19.89;66.62
61000;SHT31;46879;45.658;11.814;2023-04-30T16:54:16;19.88;66.66
61000;SHT31;46879;45.658;11.814;2023-04-30T16:59:16;19.88;66.66
61000;SHT31;46879;45.658;11.814;2023-04-30T17:04:17;19.88;66.84
61000;SHT31;46879;45.658;11.814;2023-04-30T17:09:18;19.89;66.95
61000;SHT31;46879;45.658;11.814;2023-04-30T17:14:21;19.89;66.99
61000;SHT31;46879;45.658;11.814;2023-04-30T17:19:22;19.91;67.05
61000;SHT31;46879;45.658;11.814;2023-04-30T17:24:22;19.89;67.04
61000;SHT31;46879;45.658;11.814;2023-04-30T17:29:23;19.91;67.09
61000;SHT31;46879;45.658;11.814;2023-04-30T17:34:24;19.87;67.10
61000;SHT31;46879;45.658;11.814;2023-04-30T17:39:26;19.91;67.10
61000;SHT31;46879;45.658;11.814;2023-04-30T17:44:28;19.94;67.10
61000;SHT31;46879;45.658;11.814;2023-04-30T17:49:31;19.89;67.13
61000;SHT31;46879;45.658;11.814;2023-04-30T17:54:31;19.89;67.07
61000;SHT31;46879;45.658;11.814;2023-04-30T17:59:33;19.92;67.13
61000;SHT31;46879;45.658;11.814;2023-04-30T18:04:34;19.89;67.11
61000;SHT31;46879;45.658;11.814;2023-04-30T18:09:34;19.88;67.21
61000;SHT31;46879;45.658;11.814;2023-04-30T18:14:35;19.88;67.25
61000;SHT31;46879;45.658;11.814;2023-04-30T18:19:35;19.88;67.21
61000;SHT31;46879;45.658;11.814;2023-04-30T18:24:43;19.88;67.21
61000;SHT31;46879;45.658;11.814;2023-04-30T18:29:44;19.88;67.19
61000;SHT31;46879;45.658;11.814;2023-04-30T18:34:44;19.89;67.19
61000;SHT31;46879;45.658;11.814;2023-04-30T18:39:45;19.89;67.17
61000;SHT31;46879;45.658;11.814;2023-04-30T18:44:46;19.87;67.17
61000;SHT31;46879;45.658;11.814;2023-04-30T18:49:46;19.87;67.16
61000;SHT31;46879;45.658;11.814;2023-04-30T18:54:47;19.89;67.17
61000;SHT31;46879;45.658;11.814;2023-04-30T18:59:48;19.88;67.20
61000;SHT31;46879;45.658;11.814;2023-04-30T19:04:48;19.88;67.14
61000;SHT31;46879;45.658;11.814;2023-04-30T19:09:49;19.87;67.16
61000;SHT31;46879;45.658;11.814;2023-04-30T19:14:51;19.85;67.16
61000;SHT31;46879;45.658;11.814;2023-04-30T19:19:52;19.89;67.13
61000;SHT31;46879;45.658;11.814;2023-04-30T19:24:53;19.87;67.07
61000;SHT31;46879;45.658;11.814;2023-04-30T19:29:53;19.88;67.07
61000;SHT31;46879;45.658;11.814;2023-04-30T19:34:56;19.88;67.06
61000;SHT31;46879;45.658;11.814;2023-04-30T19:39:58;19.88;67.03
61000;SHT31;46879;45.658;11.814;2023-04-30T19:44:58;19.87;67.09
61000;SHT31;46879;45.658;11.814;2023-04-30T19:49:59;19.88;67.12
61000;SHT31;46879;45.658;11.814;2023-04-30T19:54:59;19.87;67.16
61000;SHT31;46879;45.658;11.814;2023-04-30T20:00:02;19.87;67.18
61000;SHT31;46879;45.658;11.814;2023-04-30T20:05:04;19.85;67.11
61000;SHT31;46879;45.658;11.814;2023-04-30T20:10:05;19.85;67.14
61000;SHT31;46879;45.658;11.814;2023-04-30T20:15:09;19.85;67.10
61000;SHT31;46879;45.658;11.814;2023-04-30T20:20:10;19.87;67.09
61000;SHT31;46879;45.658;11.814;2023-04-30T20:25:11;19.85;67.06
61000;SHT31;46879;45.658;11.814;2023-04-30T20:30:12;19.85;67.02
61000;SHT31;46879;45.658;11.814;2023-04-30T20:35:13;19.85;67.02
61000;SHT31;46879;45.658;11.814;2023-04-30T20:40:13;19.85;67.02
61000;SHT31;46879;45.658;11.814;2023-04-30T20:45:14;19.85;67.07
61000;SHT31;46879;45.658;11.814;2023-04-30T20:50:14;19.85;67.05
61000;SHT31;46879;45.658;11.814;2023-04-30T20:55:16;19.85;67.02
61000;SHT31;46879;45.658;11.814;2023-04-30T21:00:16;19.85;67.04
61000;SHT31;46879;45.658;11.814;2023-04-30T21:05:17;19.85;67.07
61000;SHT31;46879;45.658;11.814;2023-04-30T21:10:18;19.84;67.07
61000;SHT31;46879;45.658;11.814;2023-04-30T21:15:18;19.85;67.14
61000;SHT31;46879;45.658;11.814;2023-04-30T21:20:19;19.84;67.12
61000;SHT31;46879;45.658;11.814;2023-04-30T21:25:20;19.87;67.13
61000;SHT31;46879;45.658;11.814;2023-04-30T21:30:21;19.87;67.14
61000;SHT31;46879;45.658;11.814;2023-04-30T21:35:23;19.84;67.14
61000;SHT31;46879;45.658;11.814;2023-04-30T21:40:23;19.85;67.09
61000;SHT31;46879;45.658;11.814;2023-04-30T21:45:24;19.87;67.11
61000;SHT31;46879;45.658;11.814;2023-04-30T21:50:25;19.88;67.12
61000;SHT31;46879;45.658;11.814;2023-04-30T21:55:25;19.87;67.22
61000;SHT31;46879;45.658;11.814;2023-04-30T22:00:26;19.85;68.47
61000;SHT31;46879;45.658;11.814;2023-04-30T22:05:27;19.88;68.69
61000;SHT31;46879;45.658;11.814;2023-04-30T22:10:28;19.88;68.62
61000;SHT31;46879;45.658;11.814;2023-04-30T22:15:28;19.89;68.41
61000;SHT31;46879;45.658;11.814;2023-04-30T22:20:30;19.85;68.20
61000;SHT31;46879;45.658;11.814;2023-04-30T22:25:31;19.87;68.24
61000;SHT31;46879;45.658;11.814;2023-04-30T22:30:31;19.87;68.23
61000;SHT31;46879;45.658;11.814;2023-04-30T22:35:35;19.88;68.22
61000;SHT31;46879;45.658;11.814;2023-04-30T22:40:37;19.87;68.20
61000;SHT31;46879;45.658;11.814;2023-04-30T22:45:39;19.85;68.32
61000;SHT31;46879;45.658;11.814;2023-04-30T22:50:39;19.88;68.40
61000;SHT31;46879;45.658;11.814;2023-04-30T22:55:40;19.85;68.58
61000;SHT31;46879;45.658;11.814;2023-04-30T23:00:41;19.89;68.78
61000;SHT31;46879;45.658;11.814;2023-04-30T23:05:41;19.87;68.74
61000;SHT31;46879;45.658;11.814;2023-04-30T23:10:43;19.87;68.94
61000;SHT31;46879;45.658;11.814;2023-04-30T23:15:44;19.87;69.12
61000;SHT31;46879;45.658;11.814;2023-04-30T23:20:45;19.88;69.17
61000;SHT31;46879;45.658;11.814;2023-04-30T23:25:46;19.87;69.21
61000;SHT31;46879;45.658;11.814;2023-04-30T23:30:54;19.88;69.23
61000;SHT31;46879;45.658;11.814;2023-04-30T23:35:54;19.87;69.21
61000;SHT31;46879;45.658;11.814;2023-04-30T23:40:55;19.85;69.16
61000;SHT31;46879;45.658;11.814;2023-04-30T23:45:56;19.88;69.18
61000;SHT31;46879;45.658;11.814;2023-04-30T23:51:02;19.88;69.26
61000;SHT31;46879;45.658;11.814;2023-04-30T23:56:03;19.87;69.24
